Time;durP1;ratioP1;P1;durP2;ratioP2;P2;SDS_P1;SDS_P2;PMS_P1;PMS_P2;Temp;Humidity;BMP_temperature;BMP_pressure;BME280_temperature;BME280_humidity;BME280_pressure;Samples;Min_cycle;Max_cycle;Signal;HPM_P1;HPM_P2
2022/07/29 00:00:09;;;;;;;4.70;3.40;;;;;;;;;;105495;1304;25209;-27
2022/07/29 00:02:38;;;;;;;6.50;2.20;;;;;;;;;;105442;1304;24715;-24
2022/07/29 00:05:07;;;;;;;2.90;1.70;;;;;;;;;;105401;1304;25156;-24
2022/07/29 00:07:36;;;;;;;7.10;3.10;;;;;;;;;;105526;1304;22678;-30
2022/07/29 00:10:05;;;;;;;11.50;4.00;;;;;;;;;;105439;1304;22534;-30
2022/07/29 00:12:34;;;;;;;9.00;6.70;;;;;;;;;;105473;1304;24721;-24
2022/07/29 00:15:03;;;;;;;19.50;9.20;;;;;;;;;;105464;1304;22552;-24
2022/07/29 00:17:33;;;;;;;24.60;15.70;;;;;;;;;;105377;1304;25315;-28
2022/07/29 00:20:03;;;;;;;10.30;7.40;;;;;;;;;;105498;1299;25209;-24
2022/07/29 00:22:31;;;;;;;13.20;10.00;;;;;;;;;;105371;1299;24244;-27
2022/07/29 00:25:00;;;;;;;11.30;3.30;;;;;;;;;;105474;1299;23897;-24
2022/07/29 00:27:29;;;;;;;3.90;2.30;;;;;;;;;;105421;1304;25222;-30
2022/07/29 00:29:58;;;;;;;76.20;33.00;;;;;;;;;;105465;1299;24231;-26
2022/07/29 00:32:27;;;;;;;17.50;6.10;;;;;;;;;;105489;1300;22513;-27
2022/07/29 00:37:28;;;;;;;9.20;8.30;;;;;;;;;;105587;1299;25558;-24
2022/07/29 00:39:57;;;;;;;19.90;15.50;;;;;;;;;;105391;1299;25150;-24
2022/07/29 00:42:26;;;;;;;14.90;9.50;;;;;;;;;;105419;1299;25197;-24
2022/07/29 00:44:55;;;;;;;57.20;28.30;;;;;;;;;;105455;1299;22613;-24
2022/07/29 00:47:23;;;;;;;50.10;27.30;;;;;;;;;;105465;1304;22459;-27
2022/07/29 00:49:52;;;;;;;27.60;9.60;;;;;;;;;;105421;1299;25274;-28
2022/07/29 00:52:21;;;;;;;41.70;26.80;;;;;;;;;;105430;1304;25208;-25
2022/07/29 00:54:50;;;;;;;8.70;6.50;;;;;;;;;;105510;1299;24663;-28
2022/07/29 00:57:19;;;;;;;3.50;2.70;;;;;;;;;;105443;1304;25155;-28
2022/07/29 00:59:47;;;;;;;15.50;4.90;;;;;;;;;;105457;1299;24558;-28
2022/07/29 01:02:16;;;;;;;5.90;1.70;;;;;;;;;;105454;1299;25234;-24
2022/07/29 01:04:45;;;;;;;3.50;2.70;;;;;;;;;;105464;1304;24852;-24
2022/07/29 01:07:14;;;;;;;2.70;1.90;;;;;;;;;;105584;1299;22534;-26
2022/07/29 01:09:43;;;;;;;8.60;2.60;;;;;;;;;;105542;1304;25232;-24
2022/07/29 01:12:14;;;;;;;6.70;1.90;;;;;;;;;;105526;1304;22517;-30
2022/07/29 01:14:43;;;;;;;2.60;1.50;;;;;;;;;;105557;1298;22498;-29
2022/07/29 01:17:14;;;;;;;2.60;1.50;;;;;;;;;;105551;1304;22543;-27
2022/07/29 01:19:43;;;;;;;4.00;2.00;;;;;;;;;;105446;1298;25286;-31
2022/07/29 01:22:18;;;;;;;6.80;2.20;;;;;;;;;;105516;1299;22616;-27
2022/07/29 01:24:53;;;;;;;7.90;2.20;;;;;;;;;;105525;1304;22516;-24
2022/07/29 01:27:33;;;;;;;6.00;2.20;;;;;;;;;;105463;1299;22507;-28
2022/07/29 01:30:02;;;;;;;9.30;5.30;;;;;;;;;;105509;1298;22520;-24
2022/07/29 01:32:32;;;;;;;4.30;2.60;;;;;;;;;;105475;1304;24692;-24
2022/07/29 01:35:03;;;;;;;5.50;1.40;;;;;;;;;;105424;1299;25312;-24
2022/07/29 01:37:35;;;;;;;4.80;2.30;;;;;;;;;;105407;1299;25089;-24
2022/07/29 01:40:04;;;;;;;12.30;2.00;;;;;;;;;;105467;1299;25288;-28
2022/07/29 01:42:34;;;;;;;5.30;2.90;;;;;;;;;;105469;1304;25280;-28
2022/07/29 01:45:04;;;;;;;6.70;2.10;;;;;;;;;;105471;1299;25216;-27
2022/07/29 01:47:33;;;;;;;4.10;2.50;;;;;;;;;;105272;1298;25041;-28
2022/07/29 01:50:03;;;;;;;6.00;2.90;;;;;;;;;;105465;1304;25241;-27
2022/07/29 01:52:34;;;;;;;21.10;9.30;;;;;;;;;;105502;1304;25279;-28
2022/07/29 01:55:04;;;;;;;26.40;11.10;;;;;;;;;;105475;1299;22521;-26
2022/07/29 01:57:33;;;;;;;12.30;4.70;;;;;;;;;;105475;1299;25241;-28
2022/07/29 02:00:03;;;;;;;8.60;4.80;;;;;;;;;;105364;1304;25261;-24
2022/07/29 02:02:31;;;;;;;9.40;4.20;;;;;;;;;;105398;1304;25248;-24
2022/07/29 02:05:00;;;;;;;49.70;26.90;;;;;;;;;;105494;1299;24477;-24
2022/07/29 02:07:29;;;;;;;17.90;5.90;;;;;;;;;;105528;1304;22517;-25
2022/07/29 02:09:58;;;;;;;13.30;9.70;;;;;;;;;;105174;1299;22540;-24
2022/07/29 02:12:27;;;;;;;2.70;1.60;;;;;;;;;;105463;1304;25261;-23
2022/07/29 02:14:56;;;;;;;36.10;24.00;;;;;;;;;;105457;1302;25197;-24
2022/07/29 02:17:25;;;;;;;17.30;13.10;;;;;;;;;;105436;1304;25241;-28
2022/07/29 02:19:56;;;;;;;21.60;16.50;;;;;;;;;;105331;1299;25337;-29
2022/07/29 02:22:25;;;;;;;25.50;8.00;;;;;;;;;;105418;1302;25410;-24
2022/07/29 02:24:54;;;;;;;33.90;23.80;;;;;;;;;;105451;1302;25226;-24
2022/07/29 02:27:22;;;;;;;42.90;28.30;;;;;;;;;;105432;1304;25209;-29
2022/07/29 02:29:51;;;;;;;27.30;21.50;;;;;;;;;;105456;1299;25185;-25
2022/07/29 02:32:21;;;;;;;16.50;13.60;;;;;;;;;;105384;1304;25295;-30
2022/07/29 02:34:49;;;;;;;10.40;8.90;;;;;;;;;;105462;1302;25199;-30
2022/07/29 02:37:19;;;;;;;22.30;15.00;;;;;;;;;;105557;1304;22509;-25
2022/07/29 02:39:47;;;;;;;11.00;8.90;;;;;;;;;;105444;1299;22977;-27
2022/07/29 02:42:16;;;;;;;10.90;4.00;;;;;;;;;;105586;1304;25111;-27
2022/07/29 02:44:45;;;;;;;38.40;28.10;;;;;;;;;;105385;1299;25200;-28
2022/07/29 02:47:17;;;;;;;10.60;8.90;;;;;;;;;;105393;1299;25070;-24
2022/07/29 02:49:51;;;;;;;16.70;14.80;;;;;;;;;;105560;1299;25200;-27
2022/07/29 02:52:21;;;;;;;36.60;28.00;;;;;;;;;;105481;1304;25095;-24
2022/07/29 02:55:02;;;;;;;24.00;15.00;;;;;;;;;;105422;1299;25210;-26
2022/07/29 02:57:33;;;;;;;29.10;22.00;;;;;;;;;;105516;1302;24775;-27
2022/07/29 03:00:05;;;;;;;19.00;11.20;;;;;;;;;;105431;1299;22564;-24
2022/07/29 03:02:35;;;;;;;25.50;20.10;;;;;;;;;;105393;1300;22458;-30
2022/07/29 03:05:04;;;;;;;15.70;14.10;;;;;;;;;;105366;1298;25150;-28
2022/07/29 03:07:33;;;;;;;32.10;25.70;;;;;;;;;;105390;1299;25197;-24
2022/07/29 03:10:02;;;;;;;20.10;15.50;;;;;;;;;;105597;1299;25240;-28
2022/07/29 03:12:32;;;;;;;4.60;4.10;;;;;;;;;;105415;1304;25216;-24
2022/07/29 03:15:01;;;;;;;27.30;17.20;;;;;;;;;;105420;1299;25147;-23
2022/07/29 03:17:30;;;;;;;8.90;7.50;;;;;;;;;;105425;1304;25197;-24
2022/07/29 03:19:59;;;;;;;5.50;3.40;;;;;;;;;;105427;1302;25283;-24
2022/07/29 03:22:28;;;;;;;12.00;5.20;;;;;;;;;;105580;1299;25200;-24
2022/07/29 03:24:57;;;;;;;20.40;15.70;;;;;;;;;;105420;1299;22526;-23
2022/07/29 03:27:25;;;;;;;14.40;12.30;;;;;;;;;;105420;1304;25232;-24
2022/07/29 03:29:54;;;;;;;15.80;10.40;;;;;;;;;;105500;1299;22520;-28
2022/07/29 03:32:23;;;;;;;23.90;2.10;;;;;;;;;;105454;1304;25248;-28
2022/07/29 03:34:52;;;;;;;9.50;8.40;;;;;;;;;;105445;1302;22529;-28
2022/07/29 03:37:21;;;;;;;11.10;8.40;;;;;;;;;;105439;1304;25276;-28
2022/07/29 03:39:50;;;;;;;5.60;3.20;;;;;;;;;;105475;1299;25206;-30
2022/07/29 03:42:19;;;;;;;6.20;3.20;;;;;;;;;;105595;1304;24910;-25
2022/07/29 03:44:48;;;;;;;4.80;4.40;;;;;;;;;;105413;1302;25263;-29
2022/07/29 03:47:17;;;;;;;8.40;5.50;;;;;;;;;;105397;1304;25277;-28
2022/07/29 03:49:46;;;;;;;8.80;5.30;;;;;;;;;;105444;1302;25366;-24
2022/07/29 03:52:15;;;;;;;3.60;2.20;;;;;;;;;;105551;1304;25295;-28
2022/07/29 03:54:44;;;;;;;3.70;1.60;;;;;;;;;;105379;1304;22526;-24
2022/07/29 03:57:13;;;;;;;2.00;1.00;;;;;;;;;;105442;1304;25328;-23
2022/07/29 03:59:42;;;;;;;2.00;1.20;;;;;;;;;;105513;1302;22526;-28
2022/07/29 04:02:11;;;;;;;3.40;1.40;;;;;;;;;;105441;1304;25335;-24
2022/07/29 04:04:40;;;;;;;1.90;1.00;;;;;;;;;;105486;1300;25347;-28
2022/07/29 04:07:13;;;;;;;2.50;1.00;;;;;;;;;;105397;1304;22624;-28
2022/07/29 04:09:42;;;;;;;2.00;1.10;;;;;;;;;;105443;1299;22513;-28
2022/07/29 04:12:11;;;;;;;4.50;1.60;;;;;;;;;;105540;1304;25283;-25
2022/07/29 04:14:39;;;;;;;5.10;1.30;;;;;;;;;;105382;1302;22520;-29
2022/07/29 04:17:08;;;;;;;2.40;1.70;;;;;;;;;;105486;1304;25336;-25
2022/07/29 04:19:37;;;;;;;1.60;1.30;;;;;;;;;;105382;1299;25166;-28
2022/07/29 04:22:06;;;;;;;4.60;1.30;;;;;;;;;;105466;1304;22513;-25
2022/07/29 04:24:35;;;;;;;7.00;4.90;;;;;;;;;;105537;1302;25334;-28
2022/07/29 04:27:03;;;;;;;3.90;1.80;;;;;;;;;;105533;1304;22523;-28
2022/07/29 04:29:32;;;;;;;6.50;5.10;;;;;;;;;;105528;1299;25225;-28
2022/07/29 04:32:01;;;;;;;5.40;4.90;;;;;;;;;;105415;1304;25382;-28
2022/07/29 04:34:30;;;;;;;6.10;5.00;;;;;;;;;;105385;1299;22527;-28
2022/07/29 04:36:59;;;;;;;4.10;2.70;;;;;;;;;;105560;1304;25226;-23
2022/07/29 04:39:28;;;;;;;2.90;1.40;;;;;;;;;;105362;1300;22514;-24
2022/07/29 04:41:56;;;;;;;3.40;2.80;;;;;;;;;;105586;1304;25366;-24
2022/07/29 04:44:26;;;;;;;2.10;1.50;;;;;;;;;;105604;1302;25229;-24
2022/07/29 04:46:55;;;;;;;6.00;4.40;;;;;;;;;;105400;1299;25181;-24
2022/07/29 04:49:24;;;;;;;1.60;1.20;;;;;;;;;;105436;1304;24694;-28
2022/07/29 04:51:53;;;;;;;2.70;2.00;;;;;;;;;;105406;1304;22524;-24
2022/07/29 04:54:22;;;;;;;4.40;1.60;;;;;;;;;;105329;1299;25200;-25
2022/07/29 04:56:51;;;;;;;3.60;1.80;;;;;;;;;;105483;1304;25069;-25
2022/07/29 04:59:19;;;;;;;4.40;2.60;;;;;;;;;;105357;1304;25993;-24
2022/07/29 05:01:57;;;;;;;3.90;2.10;;;;;;;;;;105448;1304;25196;-26
2022/07/29 05:04:34;;;;;;;9.20;1.90;;;;;;;;;;105488;1304;24712;-25
2022/07/29 05:07:03;;;;;;;2.00;1.60;;;;;;;;;;105545;1302;25216;-29
2022/07/29 05:09:32;;;;;;;1.60;0.60;;;;;;;;;;105450;1304;22518;-28
2022/07/29 05:12:01;;;;;;;8.10;1.70;;;;;;;;;;105444;1304;25177;-30
2022/07/29 05:14:30;;;;;;;1.90;1.30;;;;;;;;;;105465;1299;25261;-29
2022/07/29 05:16:59;;;;;;;1.80;1.00;;;;;;;;;;105504;1304;22449;-25
2022/07/29 05:19:28;;;;;;;2.90;1.60;;;;;;;;;;105488;1302;22545;-25
2022/07/29 05:21:56;;;;;;;4.10;1.50;;;;;;;;;;105484;1304;25198;-28
2022/07/29 05:24:26;;;;;;;8.80;2.00;;;;;;;;;;105393;1299;22517;-30
2022/07/29 05:26:54;;;;;;;4.50;1.40;;;;;;;;;;105476;1304;22527;-27
2022/07/29 05:29:23;;;;;;;5.20;1.60;;;;;;;;;;105460;1289;25346;-27
2022/07/29 05:31:52;;;;;;;1.20;0.80;;;;;;;;;;105516;1304;25256;-28
2022/07/29 05:34:21;;;;;;;2.30;0.80;;;;;;;;;;105523;1299;25238;-28
2022/07/29 05:36:50;;;;;;;1.20;0.60;;;;;;;;;;105401;1304;25200;-25
2022/07/29 05:39:20;;;;;;;2.10;0.80;;;;;;;;;;105557;1301;22561;-25
2022/07/29 05:41:49;;;;;;;3.30;0.50;;;;;;;;;;105620;1296;22533;-29
2022/07/29 05:44:18;;;;;;;1.50;0.90;;;;;;;;;;105571;1296;22526;-25
2022/07/29 05:46:47;;;;;;;2.90;0.60;;;;;;;;;;105535;1303;25209;-28
2022/07/29 05:49:15;;;;;;;6.50;1.20;;;;;;;;;;105544;1299;25338;-25
2022/07/29 05:51:44;;;;;;;2.00;0.70;;;;;;;;;;105280;1303;390856;-29
2022/07/29 05:54:13;;;;;;;4.90;1.90;;;;;;;;;;105521;1302;22521;-29
2022/07/29 05:56:42;;;;;;;1.50;0.80;;;;;;;;;;105624;1303;25200;-31
2022/07/29 05:59:11;;;;;;;2.90;0.70;;;;;;;;;;105581;1295;25193;-27
2022/07/29 06:01:41;;;;;;;3.40;0.70;;;;;;;;;;105493;1303;24832;-28
2022/07/29 06:04:10;;;;;;;1.30;0.70;;;;;;;;;;105564;1303;25348;-27
2022/07/29 06:06:39;;;;;;;2.00;0.80;;;;;;;;;;105521;1302;25663;-30
2022/07/29 06:09:07;;;;;;;2.30;0.90;;;;;;;;;;105668;1296;22519;-25
2022/07/29 06:11:36;;;;;;;4.10;0.70;;;;;;;;;;105627;1303;25404;-25
2022/07/29 06:14:05;;;;;;;3.90;1.20;;;;;;;;;;105599;1296;24853;-26
2022/07/29 06:16:34;;;;;;;1.10;0.70;;;;;;;;;;105598;1304;22903;-25
2022/07/29 06:19:04;;;;;;;1.60;0.60;;;;;;;;;;105655;1303;24652;-25
2022/07/29 06:21:33;;;;;;;4.90;0.60;;;;;;;;;;105540;1304;25197;-29
2022/07/29 06:24:02;;;;;;;1.40;0.40;;;;;;;;;;105607;1299;25226;-28
2022/07/29 06:26:31;;;;;;;3.20;0.70;;;;;;;;;;105612;1296;25277;-24
2022/07/29 06:29:10;;;;;;;1.20;0.60;;;;;;;;;;105569;1303;25223;-28
2022/07/29 06:31:39;;;;;;;1.80;0.60;;;;;;;;;;105559;1296;25236;-25
2022/07/29 06:34:08;;;;;;;2.00;0.50;;;;;;;;;;105540;1302;25135;-28
2022/07/29 06:36:37;;;;;;;2.70;0.60;;;;;;;;;;105588;1303;25226;-30
2022/07/29 06:39:06;;;;;;;5.00;0.90;;;;;;;;;;105545;1303;22513;-30
2022/07/29 06:41:35;;;;;;;3.10;0.90;;;;;;;;;;105638;1298;22512;-24
2022/07/29 06:44:04;;;;;;;1.80;0.40;;;;;;;;;;105533;1303;25280;-29
2022/07/29 06:46:33;;;;;;;1.50;0.80;;;;;;;;;;105581;1304;25229;-30
2022/07/29 06:49:02;;;;;;;3.70;0.80;;;;;;;;;;105594;1303;25201;-30
2022/07/29 06:51:31;;;;;;;1.70;0.80;;;;;;;;;;105630;1303;25238;-25
2022/07/29 06:54:00;;;;;;;3.10;0.60;;;;;;;;;;105563;1296;25261;-24
2022/07/29 06:56:38;;;;;;;3.80;0.60;;;;;;;;;;105570;1298;25327;-27
2022/07/29 06:59:07;;;;;;;0.70;0.60;;;;;;;;;;105582;1296;25199;-29
2022/07/29 07:01:36;;;;;;;1.80;0.70;;;;;;;;;;105626;1303;25303;-29
2022/07/29 07:04:05;;;;;;;1.30;0.80;;;;;;;;;;105594;1299;22530;-26
2022/07/29 07:06:34;;;;;;;8.70;0.70;;;;;;;;;;105614;1302;25235;-29
2022/07/29 07:09:03;;;;;;;4.10;0.80;;;;;;;;;;105647;1296;25353;-29
2022/07/29 07:11:32;;;;;;;2.20;0.60;;;;;;;;;;105614;1295;25347;-25
2022/07/29 07:14:01;;;;;;;0.90;0.50;;;;;;;;;;105615;1296;25283;-24
2022/07/29 07:16:31;;;;;;;2.90;0.60;;;;;;;;;;105584;1303;25334;-26
2022/07/29 07:19:00;;;;;;;3.50;0.70;;;;;;;;;;105615;1299;22561;-28
2022/07/29 07:21:29;;;;;;;13.40;1.00;;;;;;;;;;105581;1303;22526;-25
2022/07/29 07:23:58;;;;;;;1.70;0.70;;;;;;;;;;105614;1296;25263;-30
2022/07/29 07:26:27;;;;;;;6.50;0.90;;;;;;;;;;105568;1303;25353;-24
2022/07/29 07:28:55;;;;;;;1.70;1.00;;;;;;;;;;105572;1296;22616;-24
2022/07/29 07:31:24;;;;;;;1.90;0.60;;;;;;;;;;105520;1303;25364;-31
2022/07/29 07:33:53;;;;;;;2.10;0.90;;;;;;;;;;105630;1296;22538;-24
2022/07/29 07:36:22;;;;;;;6.60;0.60;;;;;;;;;;105664;1303;25330;-25
2022/07/29 07:38:51;;;;;;;1.20;0.60;;;;;;;;;;105554;1296;22519;-25
2022/07/29 07:41:20;;;;;;;2.70;0.90;;;;;;;;;;105540;1303;22445;-25
2022/07/29 07:43:49;;;;;;;1.30;0.50;;;;;;;;;;105591;1298;22619;-25
2022/07/29 07:46:18;;;;;;;5.90;0.90;;;;;;;;;;105593;1304;25404;-25
2022/07/29 07:48:46;;;;;;;11.90;0.90;;;;;;;;;;105530;1296;25340;-29
2022/07/29 07:51:15;;;;;;;2.90;0.80;;;;;;;;;;105635;1303;22529;-29
2022/07/29 07:53:44;;;;;;;2.70;0.90;;;;;;;;;;105643;1299;25185;-28
2022/07/29 07:56:13;;;;;;;7.70;0.70;;;;;;;;;;105653;1303;22519;-24
2022/07/29 07:58:42;;;;;;;3.40;0.90;;;;;;;;;;105585;1299;25271;-25
2022/07/29 08:01:11;;;;;;;1.30;0.60;;;;;;;;;;105666;1303;25331;-25
2022/07/29 08:03:39;;;;;;;7.40;0.80;;;;;;;;;;105615;1299;25145;-25
2022/07/29 08:06:08;;;;;;;4.40;1.00;;;;;;;;;;105518;1299;25296;-29
2022/07/29 08:08:37;;;;;;;4.90;0.50;;;;;;;;;;105571;1296;25294;-25
2022/07/29 08:11:06;;;;;;;1.00;0.80;;;;;;;;;;105622;1303;25360;-25
2022/07/29 08:13:35;;;;;;;2.10;0.40;;;;;;;;;;105612;1296;22523;-26
2022/07/29 08:18:37;;;;;;;6.80;0.80;;;;;;;;;;105563;1299;25308;-27
2022/07/29 08:21:06;;;;;;;1.30;0.60;;;;;;;;;;105558;1303;25196;-29
2022/07/29 08:23:38;;;;;;;2.80;0.70;;;;;;;;;;105567;1296;25327;-28
2022/07/29 08:26:10;;;;;;;2.80;0.80;;;;;;;;;;105500;1299;22523;-24
2022/07/29 08:28:39;;;;;;;4.60;0.60;;;;;;;;;;105629;1298;25197;-29
2022/07/29 08:31:08;;;;;;;0.80;0.60;;;;;;;;;;105596;1303;25234;-29
2022/07/29 08:33:37;;;;;;;1.20;0.50;;;;;;;;;;105489;1299;25225;-24
2022/07/29 08:36:06;;;;;;;2.90;0.60;;;;;;;;;;105612;1303;25334;-30
2022/07/29 08:38:34;;;;;;;5.60;0.80;;;;;;;;;;105567;1289;25199;-26
2022/07/29 08:41:04;;;;;;;5.40;0.70;;;;;;;;;;105506;1303;22613;-30
2022/07/29 08:43:34;;;;;;;1.90;0.70;;;;;;;;;;105647;1299;25289;-24
2022/07/29 08:46:03;;;;;;;1.60;0.80;;;;;;;;;;105595;1299;25273;-28
2022/07/29 08:48:32;;;;;;;17.80;1.00;;;;;;;;;;105598;1299;22538;-29
2022/07/29 08:51:01;;;;;;;4.10;0.60;;;;;;;;;;105636;1303;25270;-27
2022/07/29 08:53:30;;;;;;;1.10;0.50;;;;;;;;;;105629;1299;22571;-25
2022/07/29 08:55:59;;;;;;;8.10;0.40;;;;;;;;;;105620;1299;22509;-29
2022/07/29 08:58:30;;;;;;;3.80;0.60;;;;;;;;;;105587;1299;22551;-24
2022/07/29 09:01:00;;;;;;;1.40;0.60;;;;;;;;;;105607;1298;25196;-30
2022/07/29 09:03:38;;;;;;;0.70;0.40;;;;;;;;;;105551;1303;24980;-27
2022/07/29 09:06:17;;;;;;;11.00;0.90;;;;;;;;;;105580;1303;22520;-25
2022/07/29 09:08:55;;;;;;;2.30;0.70;;;;;;;;;;105572;1299;24689;-24
2022/07/29 09:11:24;;;;;;;1.00;0.50;;;;;;;;;;105576;1298;22539;-25
2022/07/29 09:13:53;;;;;;;7.70;1.40;;;;;;;;;;105632;1296;25238;-24
2022/07/29 09:16:23;;;;;;;0.60;0.60;;;;;;;;;;105610;1303;25250;-29
2022/07/29 09:18:52;;;;;;;6.50;0.70;;;;;;;;;;105558;1295;25197;-24
2022/07/29 09:23:56;;;;;;;3.90;0.60;;;;;;;;;;105552;1299;22520;-28
2022/07/29 09:26:29;;;;;;;0.60;0.50;;;;;;;;;;105563;1296;25235;-28
2022/07/29 09:28:58;;;;;;;;;;;;;;;;;;105625;1303;25228;-28
2022/07/29 09:31:34;;;;;;;1.80;1.20;;;;;;;;;;105542;1303;25209;-32
2022/07/29 09:34:03;;;;;;;2.60;1.10;;;;;;;;;;105641;1303;22522;-24
2022/07/29 09:36:36;;;;;;;1.50;0.70;;;;;;;;;;105639;1299;22942;-24
2022/07/29 09:39:14;;;;;;;3.30;0.70;;;;;;;;;;105580;1299;25199;-25
2022/07/29 09:41:53;;;;;;;8.00;0.90;;;;;;;;;;105385;1303;25196;-25
2022/07/29 09:44:33;;;;;;;2.40;0.60;;;;;;;;;;105468;1303;25184;-25
2022/07/29 09:49:36;;;;;;;1.20;0.80;;;;;;;;;;105567;1299;22545;-30
2022/07/29 09:52:07;;;;;;;2.30;0.80;;;;;;;;;;105491;1296;25207;-29
2022/07/29 09:54:36;;;;;;;1.10;0.70;;;;;;;;;;105558;1298;25407;-31
2022/07/29 09:57:06;;;;;;;1.40;0.50;;;;;;;;;;105606;1296;22558;-26
2022/07/29 09:59:35;;;;;;;1.40;0.90;;;;;;;;;;105619;1299;25226;-31
2022/07/29 10:02:07;;;;;;;1.40;1.00;;;;;;;;;;105654;1303;25204;-28
2022/07/29 10:04:38;;;;;;;16.00;0.60;;;;;;;;;;105597;1296;25288;-26
2022/07/29 10:07:07;;;;;;;2.60;1.00;;;;;;;;;;105585;1298;22612;-23
2022/07/29 10:09:36;;;;;;;3.20;0.70;;;;;;;;;;105546;1296;25346;-29
2022/07/29 10:12:08;;;;;;;8.40;0.80;;;;;;;;;;105600;1303;25261;-29
2022/07/29 10:14:38;;;;;;;0.60;0.50;;;;;;;;;;105614;1298;22525;-25
2022/07/29 10:17:16;;;;;;;1.60;0.60;;;;;;;;;;105628;1303;25162;-29
2022/07/29 10:19:45;;;;;;;1.90;1.00;;;;;;;;;;105536;1296;25203;-24
2022/07/29 10:22:13;;;;;;;3.50;1.10;;;;;;;;;;105650;1296;25461;-24
2022/07/29 10:24:42;;;;;;;2.90;1.40;;;;;;;;;;105615;1296;25199;-29
2022/07/29 10:27:12;;;;;;;3.20;1.10;;;;;;;;;;105560;1303;25231;-24
2022/07/29 10:29:41;;;;;;;1.30;0.80;;;;;;;;;;105319;1299;24708;-25
2022/07/29 10:32:13;;;;;;;1.50;0.60;;;;;;;;;;105676;1299;25206;-29
2022/07/29 10:34:45;;;;;;;31.90;1.40;;;;;;;;;;105557;1303;22536;-30
2022/07/29 10:37:26;;;;;;;2.50;1.90;;;;;;;;;;105618;1303;22521;-28
2022/07/29 10:42:42;;;;;;;0.80;0.70;;;;;;;;;;105517;1303;23242;-28
2022/07/29 10:45:11;;;;;;;4.90;0.80;;;;;;;;;;105399;1303;25247;-24
2022/07/29 10:47:40;;;;;;;3.10;1.00;;;;;;;;;;105565;1303;25228;-24
2022/07/29 10:50:09;;;;;;;1.20;0.60;;;;;;;;;;105476;1299;25194;-24
2022/07/29 10:52:41;;;;;;;3.80;0.80;;;;;;;;;;105683;1303;25307;-24
2022/07/29 10:55:29;;;;;;;5.50;1.10;;;;;;;;;;105626;1279;24468;-25
2022/07/29 10:58:02;;;;;;;1.10;0.70;;;;;;;;;;105563;1299;22516;-29
2022/07/29 11:00:31;;;;;;;11.70;1.40;;;;;;;;;;105629;1295;22519;-25
2022/07/29 11:03:00;;;;;;;5.20;1.00;;;;;;;;;;105529;1299;25698;-26
2022/07/29 11:05:31;;;;;;;0.70;0.60;;;;;;;;;;105558;1303;25225;-29
2022/07/29 11:08:03;;;;;;;1.60;0.90;;;;;;;;;;105596;1296;22447;-30
2022/07/29 11:10:41;;;;;;;4.40;1.10;;;;;;;;;;105583;1303;25215;-29
2022/07/29 11:13:09;;;;;;;1.60;0.60;;;;;;;;;;105503;1296;22516;-25
2022/07/29 11:15:42;;;;;;;4.30;0.80;;;;;;;;;;105606;1303;25292;-29
2022/07/29 11:18:13;;;;;;;11.00;1.00;;;;;;;;;;105638;1295;22520;-28
2022/07/29 11:20:44;;;;;;;1.60;0.80;;;;;;;;;;105559;1289;25250;-31
2022/07/29 11:23:24;;;;;;;2.10;0.90;;;;;;;;;;105561;1303;25267;-27
2022/07/29 11:26:04;;;;;;;8.30;1.00;;;;;;;;;;105537;1296;22512;-24
2022/07/29 11:28:33;;;;;;;3.00;0.50;;;;;;;;;;105594;1296;25223;-29
2022/07/29 11:31:02;;;;;;;7.10;1.00;;;;;;;;;;105602;1303;25362;-28
2022/07/29 11:33:31;;;;;;;1.40;1.10;;;;;;;;;;105640;1296;25340;-31
2022/07/29 11:36:04;;;;;;;3.30;1.20;;;;;;;;;;105659;1298;22563;-27
2022/07/29 11:38:32;;;;;;;1.90;1.00;;;;;;;;;;104802;1295;1003734;-24
2022/07/29 11:41:05;;;;;;;2.50;1.20;;;;;;;;;;105587;1303;22527;-25
2022/07/29 11:43:37;;;;;;;3.00;1.00;;;;;;;;;;105398;1304;22517;-25
2022/07/29 11:46:06;;;;;;;1.60;1.00;;;;;;;;;;105610;1296;22517;-28
2022/07/29 11:48:35;;;;;;;6.00;1.30;;;;;;;;;;105586;1295;25200;-28
2022/07/29 11:51:04;;;;;;;1.60;0.90;;;;;;;;;;105525;1303;25286;-28
2022/07/29 11:53:33;;;;;;;2.60;1.30;;;;;;;;;;105537;1297;22524;-24
2022/07/29 11:56:02;;;;;;;2.90;0.90;;;;;;;;;;105628;1303;25240;-28
2022/07/29 11:58:31;;;;;;;1.40;0.80;;;;;;;;;;105659;1296;25209;-28
2022/07/29 12:01:00;;;;;;;9.00;1.10;;;;;;;;;;105592;1303;22520;-25
2022/07/29 12:03:29;;;;;;;3.10;1.40;;;;;;;;;;105542;1298;25203;-28
2022/07/29 12:05:58;;;;;;;3.10;1.10;;;;;;;;;;105553;1303;25200;-25
2022/07/29 12:08:27;;;;;;;6.20;1.30;;;;;;;;;;105593;1296;25225;-30
2022/07/29 12:10:56;;;;;;;2.40;0.80;;;;;;;;;;105636;1303;25210;-24
2022/07/29 12:13:25;;;;;;;5.50;1.30;;;;;;;;;;105589;1303;26589;-28
2022/07/29 12:15:55;;;;;;;3.20;2.80;;;;;;;;;;105589;1303;22460;-30
2022/07/29 12:18:25;;;;;;;28.70;19.30;;;;;;;;;;105654;1296;22640;-24
2022/07/29 12:20:57;;;;;;;3.60;1.50;;;;;;;;;;105616;1303;25338;-24
2022/07/29 12:23:26;;;;;;;37.90;21.40;;;;;;;;;;105563;1296;22529;-28
2022/07/29 12:25:55;;;;;;;2.80;1.30;;;;;;;;;;105640;1303;25283;-30
2022/07/29 12:28:24;;;;;;;41.90;13.10;;;;;;;;;;105595;1303;22513;-30
2022/07/29 12:30:53;;;;;;;8.60;2.80;;;;;;;;;;105606;1303;25350;-24
2022/07/29 12:33:23;;;;;;;12.60;4.10;;;;;;;;;;105593;1303;25277;-26
2022/07/29 12:35:53;;;;;;;8.30;1.60;;;;;;;;;;105552;1303;22565;-25
2022/07/29 12:38:22;;;;;;;16.20;10.00;;;;;;;;;;105575;1298;22514;-28
2022/07/29 12:40:51;;;;;;;94.40;45.80;;;;;;;;;;105577;1303;25326;-25
2022/07/29 12:43:20;;;;;;;52.10;29.20;;;;;;;;;;105564;1296;22513;-30
2022/07/29 12:45:49;;;;;;;64.10;35.60;;;;;;;;;;105623;1303;25229;-25
2022/07/29 12:48:32;;;;;;;23.50;13.40;;;;;;;;;;105587;1299;23907;-31
2022/07/29 12:51:01;;;;;;;;;;;;;;;;;;105585;1298;25270;-25
2022/07/29 12:53:30;;;;;;;6.70;1.80;;;;;;;;;;105610;1296;25201;-30
2022/07/29 12:56:01;;;;;;;19.30;15.40;;;;;;;;;;105582;1303;25152;-28
2022/07/29 12:58:32;;;;;;;6.10;5.20;;;;;;;;;;105589;1297;25279;-25
2022/07/29 13:01:03;;;;;;;24.60;18.50;;;;;;;;;;105596;1299;22520;-24
2022/07/29 13:03:36;;;;;;;8.80;7.50;;;;;;;;;;105682;1296;25240;-26
2022/07/29 13:06:05;;;;;;;12.80;9.10;;;;;;;;;;105538;1296;25085;-24
2022/07/29 13:08:33;;;;;;;5.30;2.80;;;;;;;;;;105526;1299;25555;-25
2022/07/29 13:11:02;;;;;;;8.30;7.40;;;;;;;;;;104778;1303;1003192;-26
2022/07/29 13:13:31;;;;;;;5.70;4.00;;;;;;;;;;105636;1296;24618;-30
2022/07/29 13:16:03;;;;;;;4.80;4.10;;;;;;;;;;105601;1303;25361;-29
2022/07/29 13:18:33;;;;;;;1.60;1.30;;;;;;;;;;105578;1296;25315;-29
2022/07/29 13:21:05;;;;;;;2.40;1.60;;;;;;;;;;105477;1299;25282;-27
2022/07/29 13:23:34;;;;;;;3.50;1.30;;;;;;;;;;105566;1296;24675;-29
2022/07/29 13:26:07;;;;;;;5.60;4.50;;;;;;;;;;105639;1303;25232;-25
2022/07/29 13:28:36;;;;;;;;;;;;;;;;;;105551;1296;22494;-24
2022/07/29 13:31:04;;;;;;;436.50;182.30;;;;;;;;;;105645;1303;25188;-30
2022/07/29 13:33:33;;;;;;;484.40;241.40;;;;;;;;;;105535;1296;22522;-30
2022/07/29 13:36:02;;;;;;;621.80;349.70;;;;;;;;;;105577;1303;24481;-30
2022/07/29 13:38:31;;;;;;;456.40;248.80;;;;;;;;;;105433;1298;25121;-30
2022/07/29 13:41:00;;;;;;;5.20;4.70;;;;;;;;;;105597;1303;25206;-24
2022/07/29 13:43:29;;;;;;;25.60;20.50;;;;;;;;;;105624;1296;22604;-28
2022/07/29 13:45:58;;;;;;;6.10;4.10;;;;;;;;;;105534;1303;22517;-24
2022/07/29 13:48:26;;;;;;;5.00;1.40;;;;;;;;;;105586;1296;24767;-29
2022/07/29 13:50:56;;;;;;;3.60;3.30;;;;;;;;;;105188;1303;526714;-25
2022/07/29 13:53:25;;;;;;;20.80;11.70;;;;;;;;;;105514;1298;25241;-30
2022/07/29 13:55:54;;;;;;;90.10;52.10;;;;;;;;;;105665;1303;25324;-26
2022/07/29 13:58:23;;;;;;;243.20;125.00;;;;;;;;;;105606;1303;25150;-25
2022/07/29 14:00:52;;;;;;;119.90;79.50;;;;;;;;;;105568;1303;25197;-28
2022/07/29 14:03:21;;;;;;;2.70;2.00;;;;;;;;;;105584;1298;22503;-31
2022/07/29 14:05:50;;;;;;;1.60;1.40;;;;;;;;;;105562;1303;23886;-25
2022/07/29 14:08:19;;;;;;;1.90;1.20;;;;;;;;;;105608;1299;22557;-26
2022/07/29 14:10:48;;;;;;;6.60;1.20;;;;;;;;;;105592;1295;22710;-28
2022/07/29 14:13:17;;;;;;;6.00;2.50;;;;;;;;;;105612;1296;24324;-28
2022/07/29 14:15:46;;;;;;;3.40;1.80;;;;;;;;;;105546;1303;25335;-25
2022/07/29 14:18:14;;;;;;;4.80;1.40;;;;;;;;;;105619;1296;22520;-24
2022/07/29 14:20:43;;;;;;;4.80;1.70;;;;;;;;;;105612;1303;25366;-28
2022/07/29 14:23:12;;;;;;;8.40;1.40;;;;;;;;;;105580;1299;25349;-29
2022/07/29 14:25:41;;;;;;;2.10;1.30;;;;;;;;;;105652;1303;25241;-31
2022/07/29 14:28:10;;;;;;;3.10;2.00;;;;;;;;;;105616;1296;24372;-29
2022/07/29 14:30:39;;;;;;;7.20;5.10;;;;;;;;;;105579;1303;22516;-28
2022/07/29 14:33:08;;;;;;;37.30;26.20;;;;;;;;;;105584;1296;22521;-30
2022/07/29 14:35:37;;;;;;;13.50;11.80;;;;;;;;;;105572;1303;24209;-30
2022/07/29 14:38:05;;;;;;;17.20;1.80;;;;;;;;;;105450;1298;25315;-28
2022/07/29 14:40:34;;;;;;;8.00;6.80;;;;;;;;;;105610;1296;22526;-26
2022/07/29 14:43:03;;;;;;;14.30;7.10;;;;;;;;;;105598;1303;25209;-30
2022/07/29 14:45:32;;;;;;;2.90;1.80;;;;;;;;;;105626;1303;22527;-28
2022/07/29 14:48:01;;;;;;;3.00;1.80;;;;;;;;;;105600;1298;22520;-25
2022/07/29 14:50:39;;;;;;;2.20;1.80;;;;;;;;;;105510;1303;25266;-25
2022/07/29 14:53:16;;;;;;;5.70;2.50;;;;;;;;;;105473;1296;25222;-29